createdAt,value
2019-01-09T00:00:03.468Z,-67
2019-01-09T00:01:04.778Z,-65
2019-01-09T00:02:04.015Z,-65
2019-01-09T00:03:02.091Z,-67
2019-01-09T00:04:03.052Z,-66
2019-01-09T00:05:05.869Z,-65
2019-01-09T00:06:03.595Z,-66
2019-01-09T00:07:04.190Z,-66
2019-01-09T00:08:10.266Z,-66
2019-01-09T00:09:09.982Z,-65
2019-01-09T00:10:10.261Z,-66
2019-01-09T00:11:09.856Z,-66
2019-01-09T00:12:14.634Z,-65
2019-01-09T00:13:14.937Z,-65
2019-01-09T00:14:12.399Z,-66
2019-01-09T00:15:15.711Z,-65
2019-01-09T00:16:13.195Z,-67
2019-01-09T00:17:10.835Z,-65
2019-01-09T00:18:08.054Z,-65
2019-01-09T00:19:16.249Z,-65
2019-01-09T00:20:14.705Z,-67
2019-01-09T00:21:14.746Z,-66
2019-01-09T00:22:11.950Z,-66
2019-01-09T00:23:09.324Z,-65
2019-01-09T00:24:06.886Z,-65
2019-01-09T00:25:05.642Z,-67
2019-01-09T00:26:05.441Z,-65
2019-01-09T00:27:03.871Z,-65
2019-01-09T00:28:02.861Z,-64
2019-01-09T00:29:01.651Z,-65
2019-01-09T00:30:00.958Z,-65
2019-01-09T00:30:59.941Z,-66
2019-01-09T00:31:58.284Z,-66
2019-01-09T00:32:55.960Z,-64
2019-01-09T00:33:55.482Z,-65
2019-01-09T00:34:56.226Z,-65
2019-01-09T00:35:53.458Z,-66
2019-01-09T00:36:53.212Z,-66
2019-01-09T00:37:53.021Z,-65
2019-01-09T00:38:54.708Z,-65
2019-01-09T00:39:51.983Z,-66
2019-01-09T00:40:54.570Z,-66
2019-01-09T00:41:52.087Z,-66
2019-01-09T00:42:57.255Z,-66
2019-01-09T00:43:54.407Z,-66
2019-01-09T00:45:00.283Z,-65
2019-01-09T00:46:05.107Z,-66
2019-01-09T00:47:02.555Z,-67
2019-01-09T00:48:00.275Z,-66
2019-01-09T00:48:58.020Z,-66
2019-01-09T00:49:55.917Z,-66
2019-01-09T00:50:55.703Z,-67
2019-01-09T00:51:55.815Z,-68
2019-01-09T00:52:56.413Z,-67
2019-01-09T00:53:54.450Z,-67
2019-01-09T00:54:56.134Z,-67
2019-01-09T00:55:55.955Z,-67
2019-01-09T00:56:56.715Z,-67
2019-01-09T00:57:55.344Z,-68
2019-01-09T00:58:56.201Z,-69
2019-01-09T00:59:54.076Z,-67
2019-01-09T01:00:51.460Z,-66
2019-01-09T01:01:55.999Z,-67
2019-01-09T01:02:53.335Z,-67
2019-01-09T01:03:50.769Z,-67
2019-01-09T01:04:55.182Z,-68
2019-01-09T01:05:53.332Z,-67
2019-01-09T01:06:55.501Z,-66
2019-01-09T01:07:53.875Z,-67
2019-01-09T01:08:51.245Z,-66
2019-01-09T01:09:49.743Z,-67
2019-01-09T01:10:50.559Z,-66
2019-01-09T01:11:48.692Z,-66
2019-01-09T01:12:51.109Z,-67
2019-01-09T01:13:52.553Z,-65
2019-01-09T01:14:57.924Z,-66
2019-01-09T01:15:57.223Z,-65
2019-01-09T01:16:54.435Z,-64
2019-01-09T01:17:53.344Z,-65
2019-01-09T01:18:50.662Z,-65
2019-01-09T01:19:47.720Z,-66
2019-01-09T01:20:52.480Z,-67
2019-01-09T01:21:50.858Z,-65
2019-01-09T01:22:56.187Z,-66
2019-01-09T01:23:57.398Z,-66
2019-01-09T01:25:03.960Z,-66
2019-01-09T01:26:03.939Z,-65
2019-01-09T01:27:01.832Z,-65
2019-01-09T01:28:03.031Z,-65
2019-01-09T01:29:03.459Z,-64
2019-01-09T01:30:04.071Z,-65
2019-01-09T01:31:09.110Z,-66
2019-01-09T01:32:08.292Z,-67
2019-01-09T01:33:06.559Z,-67
2019-01-09T01:34:04.859Z,-66
2019-01-09T01:35:02.260Z,-66
2019-01-09T01:36:00.300Z,-65
2019-01-09T01:36:57.976Z,-64
2019-01-09T01:37:57.453Z,-67
2019-01-09T01:39:01.682Z,-66
2019-01-09T01:40:12.061Z,-65
2019-01-09T01:41:11.760Z,-66
2019-01-09T01:42:09.600Z,-66
2019-01-09T01:43:10.630Z,-65
2019-01-09T01:44:09.320Z,-65
2019-01-09T01:45:07.304Z,-63
2019-01-09T01:46:06.264Z,-66
2019-01-09T01:47:04.336Z,-64
2019-01-09T01:48:01.726Z,-66
2019-01-09T01:48:59.644Z,-66
2019-01-09T01:50:07.168Z,-67
2019-01-09T01:51:09.537Z,-68
2019-01-09T01:52:06.459Z,-67
2019-01-09T01:53:04.912Z,-66
2019-01-09T01:54:06.515Z,-67
2019-01-09T01:55:05.358Z,-68
2019-01-09T01:56:07.854Z,-67
2019-01-09T01:57:04.910Z,-66
2019-01-09T01:58:04.371Z,-67
2019-01-09T01:59:11.476Z,-66
2019-01-09T02:00:08.313Z,-66
2019-01-09T02:01:08.053Z,-66
2019-01-09T02:02:19.052Z,-66
2019-01-09T02:03:17.371Z,-67
2019-01-09T02:04:14.689Z,-68
2019-01-09T02:05:11.802Z,-67
2019-01-09T02:06:09.025Z,-67
2019-01-09T02:07:10.900Z,-67
2019-01-09T02:08:09.214Z,-64
2019-01-09T02:09:06.302Z,-65
2019-01-09T02:10:04.751Z,-65
2019-01-09T02:11:03.288Z,-65
2019-01-09T02:12:02.661Z,-66
2019-01-09T02:13:07.485Z,-65
2019-01-09T02:14:07.587Z,-65
2019-01-09T02:15:11.385Z,-65
2019-01-09T02:16:13.943Z,-64
2019-01-09T02:17:12.244Z,-66
2019-01-09T02:18:13.053Z,-64
2019-01-09T02:19:10.227Z,-66
2019-01-09T02:20:13.388Z,-65
2019-01-09T02:21:10.731Z,-66
2019-01-09T02:22:09.552Z,-66
2019-01-09T02:23:08.141Z,-66
2019-01-09T02:24:12.410Z,-66
2019-01-09T02:25:11.546Z,-65
2019-01-09T02:26:10.002Z,-65
2019-01-09T02:27:07.048Z,-66
2019-01-09T02:28:12.637Z,-65
2019-01-09T02:29:09.443Z,-67
2019-01-09T02:30:11.952Z,-65
2019-01-09T02:31:11.231Z,-66
2019-01-09T02:32:08.414Z,-66
2019-01-09T02:33:17.794Z,-67
2019-01-09T02:34:14.507Z,-66
2019-01-09T02:35:11.945Z,-67
2019-01-09T02:36:13.613Z,-69
2019-01-09T02:37:13.755Z,-66
2019-01-09T02:38:13.409Z,-68
2019-01-09T02:39:11.797Z,-67
2019-01-09T02:40:09.941Z,-66
2019-01-09T02:41:10.870Z,-65
2019-01-09T02:42:07.822Z,-67
2019-01-09T02:43:08.784Z,-64
2019-01-09T02:44:06.943Z,-66
2019-01-09T02:45:05.830Z,-65
2019-01-09T02:46:08.059Z,-66
2019-01-09T02:47:06.735Z,-66
2019-01-09T02:48:03.831Z,-67
2019-01-09T02:49:01.521Z,-67
2019-01-09T02:49:59.211Z,-67
2019-01-09T02:50:57.605Z,-66
2019-01-09T02:51:56.545Z,-68
2019-01-09T02:52:54.457Z,-67
2019-01-09T02:53:51.957Z,-67
2019-01-09T02:54:48.989Z,-69
2019-01-09T02:55:46.688Z,-68
2019-01-09T02:56:46.298Z,-67
2019-01-09T02:57:43.434Z,-69
2019-01-09T02:58:42.104Z,-68
2019-01-09T02:59:40.843Z,-66
2019-01-09T03:00:40.443Z,-68
2019-01-09T03:01:37.513Z,-66
2019-01-09T03:02:35.402Z,-65
2019-01-09T03:03:35.117Z,-66
2019-01-09T03:04:32.494Z,-66
2019-01-09T03:05:29.640Z,-68
2019-01-09T03:06:27.016Z,-65
2019-01-09T03:07:26.563Z,-66
2019-01-09T03:08:25.173Z,-66
2019-01-09T03:09:28.147Z,-67
2019-01-09T03:10:24.836Z,-65
2019-01-09T03:11:21.536Z,-67
2019-01-09T03:12:21.243Z,-66
2019-01-09T03:13:18.212Z,-67
2019-01-09T03:14:15.894Z,-67
2019-01-09T03:15:21.475Z,-66
2019-01-09T03:16:20.175Z,-67
2019-01-09T03:17:19.508Z,-66
2019-01-09T03:18:17.016Z,-67
2019-01-09T03:19:17.110Z,-67
2019-01-09T03:20:15.014Z,-67
2019-01-09T03:21:12.539Z,-67
2019-01-09T03:22:10.212Z,-67
2019-01-09T03:23:09.955Z,-66
2019-01-09T03:24:10.617Z,-66
2019-01-09T03:25:07.818Z,-66
2019-01-09T03:26:04.655Z,-65
2019-01-09T03:27:03.114Z,-65
2019-01-09T03:28:00.256Z,-64
2019-01-09T03:28:59.429Z,-66
2019-01-09T03:29:57.146Z,-65
2019-01-09T03:31:05.942Z,-66
2019-01-09T03:32:02.989Z,-66
2019-01-09T03:32:59.975Z,-66
2019-01-09T03:33:59.134Z,-65
2019-01-09T03:35:00.306Z,-64
2019-01-09T03:35:57.261Z,-65
2019-01-09T03:36:54.223Z,-65
2019-01-09T03:37:50.981Z,-66
2019-01-09T03:38:55.892Z,-66
2019-01-09T03:39:54.797Z,-68
2019-01-09T03:40:52.075Z,-67
2019-01-09T03:41:48.693Z,-66
2019-01-09T03:42:53.387Z,-66
2019-01-09T03:43:56.864Z,-67
2019-01-09T03:44:54.549Z,-67
2019-01-09T03:45:57.524Z,-67
2019-01-09T03:46:55.876Z,-67
2019-01-09T03:47:54.661Z,-67
2019-01-09T03:49:00.682Z,-68
2019-01-09T03:50:00.478Z,-68
2019-01-09T03:50:58.645Z,-67
2019-01-09T03:52:01.750Z,-65
2019-01-09T03:53:03.680Z,-68
2019-01-09T03:54:05.810Z,-67
2019-01-09T03:55:15.828Z,-67
2019-01-09T03:56:15.695Z,-66
2019-01-09T03:57:12.820Z,-67
2019-01-09T03:58:09.862Z,-67
2019-01-09T03:59:08.195Z,-67
2019-01-09T04:00:06.830Z,-67
2019-01-09T04:01:07.724Z,-68
2019-01-09T04:02:06.140Z,-66
2019-01-09T04:03:08.443Z,-65
2019-01-09T04:04:06.836Z,-67
2019-01-09T04:05:02.011Z,-66
2019-01-09T04:06:02.169Z,-66
2019-01-09T04:06:59.604Z,-66
2019-01-09T04:08:00.550Z,-67
2019-01-09T04:08:57.284Z,-65
2019-01-09T04:09:56.277Z,-67
2019-01-09T04:10:54.553Z,-65
2019-01-09T04:11:53.100Z,-66
2019-01-09T04:12:50.686Z,-66
2019-01-09T04:13:49.732Z,-67
2019-01-09T04:14:46.627Z,-67
2019-01-09T04:15:45.899Z,-66
2019-01-09T04:16:46.002Z,-66
2019-01-09T04:17:51.516Z,-66
2019-01-09T04:18:49.165Z,-66
2019-01-09T04:19:50.598Z,-65
2019-01-09T04:20:53.918Z,-66
2019-01-09T04:21:53.459Z,-66
2019-01-09T04:22:53.332Z,-66
2019-01-09T04:23:55.604Z,-66
2019-01-09T04:24:53.829Z,-66
2019-01-09T04:25:56.036Z,-66
2019-01-09T04:26:58.208Z,-65
2019-01-09T04:27:57.247Z,-65
2019-01-09T04:28:55.037Z,-66
2019-01-09T04:29:58.385Z,-65
2019-01-09T04:31:04.438Z,-65
2019-01-09T04:32:07.310Z,-66
2019-01-09T04:33:05.531Z,-66
2019-01-09T04:34:05.669Z,-66
2019-01-09T04:35:04.617Z,-67
2019-01-09T04:36:04.584Z,-65
2019-01-09T04:37:02.117Z,-65
2019-01-09T04:37:59.098Z,-63
2019-01-09T04:39:01.820Z,-67
2019-01-09T04:40:05.241Z,-65
2019-01-09T04:41:04.041Z,-64
2019-01-09T04:42:07.661Z,-64
2019-01-09T04:43:09.255Z,-63
2019-01-09T04:44:06.536Z,-64
2019-01-09T04:45:06.383Z,-65
2019-01-09T04:46:03.966Z,-66
2019-01-09T04:47:01.757Z,-66
2019-01-09T04:48:05.025Z,-67
2019-01-09T04:49:04.048Z,-66
2019-01-09T04:50:04.599Z,-67
2019-01-09T04:51:07.183Z,-67
2019-01-09T04:52:06.300Z,-67
2019-01-09T04:53:07.948Z,-67
2019-01-09T04:54:06.221Z,-68
2019-01-09T04:55:03.365Z,-66
2019-01-09T04:56:00.931Z,-65
2019-01-09T04:57:00.431Z,-67
2019-01-09T04:57:58.859Z,-67
2019-01-09T04:58:58.112Z,-68
2019-01-09T05:00:03.432Z,-67
2019-01-09T05:01:02.863Z,-66
2019-01-09T05:02:06.519Z,-68
2019-01-09T05:03:12.225Z,-66
2019-01-09T05:04:09.283Z,-66
2019-01-09T05:05:06.018Z,-66
2019-01-09T05:06:05.320Z,-67
2019-01-09T05:07:07.929Z,-66
2019-01-09T05:08:06.034Z,-67
2019-01-09T05:09:03.985Z,-65
2019-01-09T05:10:02.052Z,-67
2019-01-09T05:10:59.901Z,-65
2019-01-09T05:11:58.705Z,-66
2019-01-09T05:12:56.536Z,-65
2019-01-09T05:13:55.360Z,-66
2019-01-09T05:14:53.529Z,-65
2019-01-09T05:15:51.896Z,-66
2019-01-09T05:16:49.955Z,-66
2019-01-09T05:17:52.494Z,-66
2019-01-09T05:18:50.191Z,-66
2019-01-09T05:19:53.190Z,-66
2019-01-09T05:20:52.483Z,-66
2019-01-09T05:21:49.492Z,-66
2019-01-09T05:22:46.169Z,-66
2019-01-09T05:23:53.576Z,-66
2019-01-09T05:24:54.248Z,-64
2019-01-09T05:25:52.179Z,-66
2019-01-09T05:26:49.075Z,-66
2019-01-09T05:27:52.188Z,-64
2019-01-09T05:28:54.704Z,-66
2019-01-09T05:29:51.770Z,-66
2019-01-09T05:30:52.930Z,-65
2019-01-09T05:31:50.659Z,-65
2019-01-09T05:32:56.089Z,-65
2019-01-09T05:33:52.994Z,-65
2019-01-09T05:34:56.574Z,-65
2019-01-09T05:35:53.059Z,-65
2019-01-09T05:36:58.383Z,-66
2019-01-09T05:37:55.423Z,-65
2019-01-09T05:38:25.432Z,-65
2019-01-09T05:39:26.152Z,-67
2019-01-09T05:40:32.215Z,-67
2019-01-09T05:41:30.084Z,-66
2019-01-09T05:42:30.149Z,-66
2019-01-09T05:43:30.300Z,-65
2019-01-09T05:44:29.879Z,-68
2019-01-09T05:45:29.559Z,-67
2019-01-09T05:46:33.587Z,-67
2019-01-09T05:47:32.753Z,-68
2019-01-09T05:48:31.130Z,-68
2019-01-09T05:49:31.087Z,-67
2019-01-09T05:50:31.994Z,-69
2019-01-09T05:51:30.456Z,-66
2019-01-09T05:52:28.099Z,-66
2019-01-09T05:53:26.780Z,-68
2019-01-09T05:54:24.047Z,-68
2019-01-09T05:55:25.247Z,-68
2019-01-09T05:56:27.441Z,-67
2019-01-09T05:57:25.305Z,-66
2019-01-09T05:58:27.259Z,-69
2019-01-09T05:59:34.093Z,-68
2019-01-09T06:00:31.599Z,-66
2019-01-09T06:01:29.154Z,-68
2019-01-09T06:02:27.858Z,-69
2019-01-09T06:03:25.136Z,-67
2019-01-09T06:04:24.557Z,-64
2019-01-09T06:05:23.430Z,-66
2019-01-09T06:06:23.059Z,-68
2019-01-09T06:07:20.538Z,-68
2019-01-09T06:08:17.099Z,-66
2019-01-09T06:09:18.802Z,-67
2019-01-09T06:10:17.045Z,-67
2019-01-09T06:11:15.396Z,-66
2019-01-09T06:12:12.305Z,-65
2019-01-09T06:13:09.601Z,-67
2019-01-09T06:14:07.311Z,-66
2019-01-09T06:15:03.919Z,-65
2019-01-09T06:16:02.875Z,-66
2019-01-09T06:17:00.785Z,-66
2019-01-09T06:17:59.576Z,-63
2019-01-09T06:18:56.369Z,-64
2019-01-09T06:19:58.683Z,-65
2019-01-09T06:20:56.746Z,-64
2019-01-09T06:21:57.864Z,-65
2019-01-09T06:22:55.531Z,-65
2019-01-09T06:23:59.982Z,-65
2019-01-09T06:24:59.778Z,-65
2019-01-09T06:25:58.149Z,-64
2019-01-09T06:26:56.773Z,-65
2019-01-09T06:27:54.418Z,-65
2019-01-09T06:28:51.072Z,-65
2019-01-09T06:29:47.581Z,-64
2019-01-09T06:30:45.880Z,-64
2019-01-09T06:31:42.392Z,-65
2019-01-09T06:32:41.418Z,-65
2019-01-09T06:33:47.316Z,-64
2019-01-09T06:34:46.340Z,-66
2019-01-09T06:35:46.646Z,-63
2019-01-09T06:36:42.739Z,-65
2019-01-09T06:37:41.007Z,-65
2019-01-09T06:38:38.735Z,-66
2019-01-09T06:39:38.325Z,-66
2019-01-09T06:40:36.069Z,-66
2019-01-09T06:41:33.412Z,-67
2019-01-09T06:42:34.735Z,-66
2019-01-09T06:43:34.837Z,-66
2019-01-09T06:44:34.147Z,-68
2019-01-09T06:45:36.367Z,-65
2019-01-09T06:46:34.925Z,-66
2019-01-09T06:47:32.199Z,-67
2019-01-09T06:48:29.021Z,-67
2019-01-09T06:49:25.839Z,-66
2019-01-09T06:50:22.698Z,-66
2019-01-09T06:51:19.487Z,-68
2019-01-09T06:52:16.807Z,-68
2019-01-09T06:53:16.166Z,-68
2019-01-09T06:54:14.733Z,-68
2019-01-09T06:55:12.706Z,-67
2019-01-09T06:56:09.666Z,-66
2019-01-09T06:57:11.075Z,-68
2019-01-09T06:58:07.898Z,-67
2019-01-09T06:59:06.706Z,-67
2019-01-09T07:00:07.749Z,-67
2019-01-09T07:01:04.706Z,-68
2019-01-09T07:02:01.963Z,-66
2019-01-09T07:03:05.333Z,-65
2019-01-09T07:04:03.755Z,-67
2019-01-09T07:05:06.185Z,-66
2019-01-09T07:06:12.138Z,-66
2019-01-09T07:07:08.684Z,-67
2019-01-09T07:08:06.571Z,-66
2019-01-09T07:09:13.855Z,-67
2019-01-09T07:10:14.770Z,-67
2019-01-09T07:11:22.717Z,-67
2019-01-09T07:12:20.742Z,-66
2019-01-09T07:13:23.271Z,-67
2019-01-09T07:14:19.684Z,-67
2019-01-09T07:15:21.844Z,-67
2019-01-09T07:16:19.595Z,-67
2019-01-09T07:17:17.413Z,-66
2019-01-09T07:18:16.552Z,-67
2019-01-09T07:19:12.927Z,-68
2019-01-09T07:20:14.078Z,-66
2019-01-09T07:21:12.239Z,-66
2019-01-09T07:22:09.287Z,-67
2019-01-09T07:23:06.884Z,-66
2019-01-09T07:24:05.218Z,-65
2019-01-09T07:25:03.511Z,-65
2019-01-09T07:26:03.068Z,-65
2019-01-09T07:27:01.687Z,-65
2019-01-09T07:27:59.858Z,-65
2019-01-09T07:29:02.369Z,-65
2019-01-09T07:29:59.638Z,-67
2019-01-09T07:30:56.529Z,-64
2019-01-09T07:31:52.978Z,-66
2019-01-09T07:32:50.175Z,-63
2019-01-09T07:33:51.145Z,-65
2019-01-09T07:34:56.582Z,-67
2019-01-09T07:35:54.169Z,-67
2019-01-09T07:36:53.345Z,-68
2019-01-09T07:37:52.189Z,-67
2019-01-09T07:38:52.766Z,-67
2019-01-09T07:39:50.967Z,-69
2019-01-09T07:40:56.084Z,-67
2019-01-09T07:41:55.193Z,-69
2019-01-09T07:42:54.033Z,-69
2019-01-09T07:43:50.520Z,-68
2019-01-09T07:44:47.812Z,-68
2019-01-09T07:45:46.184Z,-70
2019-01-09T07:46:48.154Z,-68
2019-01-09T07:47:45.921Z,-70
2019-01-09T07:48:43.823Z,-70
2019-01-09T07:49:40.868Z,-69
2019-01-09T07:50:37.759Z,-70
2019-01-09T07:51:34.996Z,-69
2019-01-09T07:52:32.652Z,-71
2019-01-09T07:53:29.556Z,-71
2019-01-09T07:54:27.300Z,-69
2019-01-09T07:55:25.955Z,-70
2019-01-09T07:56:22.755Z,-71
2019-01-09T07:57:21.295Z,-71
2019-01-09T07:58:19.671Z,-69
2019-01-09T07:59:16.050Z,-70
2019-01-09T08:00:14.102Z,-70
2019-01-09T08:01:11.793Z,-71
2019-01-09T08:02:08.753Z,-71
2019-01-09T08:03:05.241Z,-69
2019-01-09T08:04:05.553Z,-68
2019-01-09T08:05:12.990Z,-69
2019-01-09T08:06:14.644Z,-69
2019-01-09T08:07:14.242Z,-69
2019-01-09T08:08:14.727Z,-68
2019-01-09T08:09:11.147Z,-69
2019-01-09T08:10:07.490Z,-67
2019-01-09T08:11:06.537Z,-68
2019-01-09T08:12:05.912Z,-68
2019-01-09T08:13:06.194Z,-68
2019-01-09T08:14:07.422Z,-67
2019-01-09T08:15:03.954Z,-67
2019-01-09T08:16:06.178Z,-69
2019-01-09T08:17:05.569Z,-68
2019-01-09T08:18:02.790Z,-67
2019-01-09T08:18:59.280Z,-67
2019-01-09T08:19:58.959Z,-66
2019-01-09T08:21:05.185Z,-67
2019-01-09T08:21:05.574Z,-67
2019-01-09T08:21:54.789Z,-66
2019-01-09T08:22:51.385Z,-67
2019-01-09T08:23:52.575Z,-66
2019-01-09T08:24:53.767Z,-66
2019-01-09T08:25:51.068Z,-65
2019-01-09T08:26:48.252Z,-68
2019-01-09T08:27:47.256Z,-66
2019-01-09T08:28:47.818Z,-67
2019-01-09T08:29:45.098Z,-66
2019-01-09T08:30:48.539Z,-67
2019-01-09T08:31:46.364Z,-67
2019-01-09T08:32:43.202Z,-66
2019-01-09T08:33:52.975Z,-67
2019-01-09T08:34:50.577Z,-67
2019-01-09T08:35:46.932Z,-68
2019-01-09T08:36:44.833Z,-68
2019-01-09T08:37:44.757Z,-68
2019-01-09T08:38:46.237Z,-67
2019-01-09T08:39:46.345Z,-67
2019-01-09T08:40:44.120Z,-68
2019-01-09T08:41:42.067Z,-68
2019-01-09T08:42:43.495Z,-70
2019-01-09T08:43:39.834Z,-68
2019-01-09T08:44:39.016Z,-70
2019-01-09T08:45:36.468Z,-70
2019-01-09T08:46:37.698Z,-70
2019-01-09T08:47:38.451Z,-69
2019-01-09T08:48:40.884Z,-71
2019-01-09T08:49:41.357Z,-68
2019-01-09T08:50:39.219Z,-70
2019-01-09T08:51:37.964Z,-68
2019-01-09T08:52:36.735Z,-70
2019-01-09T08:53:34.058Z,-72
2019-01-09T08:54:32.304Z,-70
2019-01-09T08:55:29.171Z,-71
2019-01-09T08:56:25.691Z,-71
2019-01-09T08:57:29.252Z,-71
2019-01-09T08:58:30.359Z,-71
2019-01-09T08:59:29.086Z,-69
2019-01-09T09:00:32.207Z,-75
2019-01-09T09:01:30.814Z,-75
2019-01-09T09:02:28.626Z,-71
2019-01-09T09:03:25.149Z,-69
2019-01-09T09:04:23.763Z,-69
2019-01-09T09:05:27.072Z,-68
2019-01-09T09:06:23.380Z,-68
2019-01-09T09:07:20.764Z,-70
2019-01-09T09:08:18.051Z,-68
2019-01-09T09:09:14.822Z,-71
2019-01-09T09:10:12.873Z,-65
2019-01-09T09:11:10.203Z,-68
2019-01-09T09:12:10.324Z,-71
2019-01-09T09:13:07.164Z,-67
2019-01-09T09:14:04.956Z,-70
2019-01-09T09:15:02.338Z,-62
2019-01-09T09:16:02.152Z,-60
2019-01-09T09:17:01.732Z,-63
2019-01-09T09:17:59.948Z,-63
2019-01-09T09:18:58.112Z,-64
2019-01-09T09:19:55.809Z,-65
2019-01-09T09:20:52.903Z,-63
2019-01-09T09:21:49.564Z,-66
2019-01-09T09:22:46.335Z,-67
2019-01-09T09:23:43.872Z,-66
2019-01-09T09:24:41.664Z,-66
2019-01-09T09:25:38.830Z,-62
2019-01-09T09:26:36.808Z,-62
2019-01-09T09:27:32.465Z,-66
2019-01-09T09:28:34.997Z,-64
2019-01-09T09:29:32.323Z,-62
2019-01-09T09:30:29.451Z,-67
2019-01-09T09:31:27.529Z,-65
2019-01-09T09:32:24.899Z,-69
2019-01-09T09:33:25.431Z,-65
2019-01-09T09:34:21.887Z,-61
2019-01-09T09:35:18.859Z,-57
2019-01-09T09:36:15.337Z,-63
2019-01-09T09:37:11.244Z,-60
2019-01-09T09:38:10.986Z,-61
2019-01-09T09:39:06.653Z,-62
2019-01-09T09:40:04.334Z,-61
2019-01-09T09:41:04.098Z,-61
2019-01-09T09:42:02.417Z,-62
2019-01-09T09:42:58.422Z,-63
2019-01-09T09:43:55.328Z,-63
2019-01-09T09:45:00.295Z,-60
2019-01-09T09:45:58.745Z,-61
2019-01-09T09:46:57.902Z,-61
2019-01-09T09:47:54.482Z,-62
2019-01-09T09:48:52.934Z,-62
2019-01-09T09:49:54.577Z,-64
2019-01-09T09:50:52.700Z,-61
2019-01-09T09:51:50.701Z,-62
2019-01-09T09:52:48.281Z,-62
2019-01-09T09:53:51.075Z,-61
2019-01-09T09:54:47.645Z,-61
2019-01-09T09:55:48.126Z,-62
2019-01-09T09:56:53.288Z,-61
2019-01-09T09:57:50.930Z,-62
2019-01-09T09:58:48.374Z,-62
2019-01-09T09:59:46.517Z,-60
2019-01-09T10:00:42.904Z,-62
2019-01-09T10:01:40.581Z,-60
2019-01-09T10:02:37.221Z,-61
2019-01-09T10:03:39.542Z,-59
2019-01-09T10:04:41.896Z,-60
2019-01-09T10:05:40.773Z,-62
2019-01-09T10:06:38.435Z,-60
2019-01-09T10:07:40.371Z,-59
2019-01-09T10:08:37.392Z,-59
2019-01-09T10:09:35.069Z,-58
2019-01-09T10:10:35.193Z,-58
2019-01-09T10:11:31.706Z,-59
2019-01-09T10:12:30.804Z,-58
2019-01-09T10:13:38.388Z,-60
2019-01-09T10:14:39.074Z,-59
2019-01-09T10:15:37.926Z,-59
2019-01-09T10:16:35.169Z,-60
2019-01-09T10:17:34.148Z,-60
2019-01-09T10:18:37.805Z,-61
2019-01-09T10:19:35.180Z,-60
2019-01-09T10:20:32.741Z,-60
2019-01-09T10:21:29.675Z,-60
2019-01-09T10:22:28.421Z,-57
2019-01-09T10:23:33.065Z,-59
2019-01-09T10:24:29.723Z,-59
2019-01-09T10:25:31.170Z,-60
2019-01-09T10:26:30.575Z,-57
2019-01-09T10:27:29.551Z,-60
2019-01-09T10:28:26.958Z,-60
2019-01-09T10:29:24.516Z,-59
2019-01-09T10:30:22.884Z,-58
2019-01-09T10:31:24.999Z,-60
2019-01-09T10:32:22.288Z,-59
2019-01-09T10:33:34.722Z,-58
2019-01-09T10:34:34.033Z,-58
2019-01-09T10:35:33.324Z,-58
2019-01-09T10:36:30.980Z,-59
2019-01-09T10:37:28.684Z,-60
2019-01-09T10:38:27.264Z,-59
2019-01-09T10:39:24.978Z,-57
2019-01-09T10:40:35.875Z,-57
2019-01-09T10:40:36.302Z,-57
2019-01-09T10:41:26.183Z,-58
2019-01-09T10:42:32.028Z,-58
2019-01-09T10:43:29.879Z,-59
2019-01-09T10:44:34.704Z,-59
2019-01-09T10:45:31.588Z,-59
2019-01-09T10:46:29.737Z,-59
2019-01-09T10:47:27.624Z,-59
2019-01-09T10:48:26.541Z,-59
2019-01-09T10:49:27.860Z,-58
2019-01-09T10:50:29.208Z,-57
2019-01-09T10:51:26.277Z,-59
2019-01-09T10:52:29.197Z,-58
2019-01-09T10:53:28.953Z,-59
2019-01-09T10:54:31.171Z,-57
2019-01-09T10:55:29.836Z,-59
2019-01-09T10:56:30.120Z,-59
2019-01-09T10:57:31.648Z,-59
2019-01-09T10:58:29.315Z,-57
2019-01-09T10:59:31.753Z,-58
2019-01-09T11:00:30.036Z,-58
2019-01-09T11:01:30.171Z,-58
2019-01-09T11:02:27.817Z,-58
2019-01-09T11:03:28.777Z,-58
2019-01-09T11:04:26.428Z,-57
2019-01-09T11:05:24.632Z,-58
2019-01-09T11:06:23.732Z,-58
2019-01-09T11:07:29.662Z,-58
2019-01-09T11:08:27.988Z,-57
2019-01-09T11:09:26.168Z,-58
2019-01-09T11:10:23.623Z,-60
2019-01-09T11:11:21.367Z,-59
2019-01-09T11:12:19.565Z,-59
2019-01-09T11:13:18.494Z,-59
2019-01-09T11:14:15.997Z,-59
2019-01-09T11:15:14.729Z,-56
2019-01-09T11:16:16.495Z,-56
2019-01-09T11:17:17.213Z,-57
2019-01-09T11:18:16.082Z,-56
2019-01-09T11:19:18.570Z,-58
2019-01-09T11:20:16.246Z,-57
2019-01-09T11:21:14.843Z,-59
2019-01-09T11:22:12.091Z,-57
2019-01-09T11:23:16.218Z,-57
2019-01-09T11:24:16.050Z,-57
2019-01-09T11:25:14.015Z,-57
2019-01-09T11:26:15.290Z,-56
2019-01-09T11:27:14.473Z,-56
2019-01-09T11:28:20.077Z,-57
2019-01-09T11:29:20.334Z,-56
2019-01-09T11:30:17.874Z,-55
2019-01-09T11:31:16.055Z,-55
2019-01-09T11:32:16.355Z,-56
2019-01-09T11:33:16.034Z,-56
2019-01-09T11:34:13.670Z,-55
2019-01-09T11:35:13.314Z,-56
2019-01-09T11:36:16.433Z,-56
2019-01-09T11:37:15.140Z,-56
2019-01-09T11:38:20.014Z,-55
2019-01-09T11:39:19.233Z,-56
2019-01-09T11:40:18.943Z,-56
2019-01-09T11:41:17.150Z,-56
2019-01-09T11:42:16.809Z,-56
2019-01-09T11:43:15.028Z,-55
2019-01-09T11:44:14.253Z,-56
2019-01-09T11:45:11.720Z,-56
2019-01-09T11:46:09.036Z,-55
2019-01-09T11:47:07.050Z,-57
2019-01-09T11:48:07.694Z,-57
2019-01-09T11:49:06.925Z,-56
2019-01-09T11:50:04.647Z,-55
2019-01-09T11:51:02.769Z,-56
2019-01-09T11:52:02.909Z,-56
2019-01-09T11:53:02.452Z,-56
2019-01-09T11:54:02.605Z,-57
2019-01-09T11:55:00.902Z,-56
2019-01-09T11:55:58.785Z,-56
2019-01-09T11:56:58.381Z,-56
2019-01-09T11:57:59.184Z,-56
2019-01-09T11:59:03.532Z,-56
2019-01-09T12:00:01.158Z,-56
2019-01-09T12:01:00.012Z,-56
2019-01-09T12:01:58.666Z,-55
2019-01-09T12:02:57.647Z,-57
2019-01-09T12:03:55.944Z,-57
2019-01-09T12:04:56.330Z,-56
2019-01-09T12:05:55.118Z,-55
2019-01-09T12:06:52.475Z,-55
2019-01-09T12:07:54.712Z,-56
2019-01-09T12:08:53.035Z,-56
2019-01-09T12:09:53.340Z,-56
2019-01-09T12:10:54.493Z,-55
2019-01-09T12:11:21.990Z,-55
2019-01-09T12:12:18.969Z,-55
2019-01-09T12:13:22.901Z,-55
2019-01-09T12:14:20.803Z,-56
2019-01-09T12:15:20.011Z,-56
2019-01-09T12:16:22.695Z,-56
2019-01-09T12:17:24.131Z,-55
2019-01-09T12:18:25.079Z,-57
2019-01-09T12:19:23.102Z,-57
2019-01-09T12:20:28.212Z,-56
2019-01-09T12:21:26.009Z,-55
2019-01-09T12:22:29.765Z,-54
2019-01-09T12:23:32.261Z,-54
2019-01-09T12:24:33.405Z,-55
2019-01-09T12:25:35.067Z,-55
2019-01-09T12:26:32.344Z,-56
2019-01-09T12:27:35.298Z,-55
2019-01-09T12:28:37.367Z,-56
2019-01-09T12:29:37.476Z,-54
2019-01-09T12:30:34.766Z,-55
2019-01-09T12:31:31.947Z,-56
2019-01-09T12:32:29.580Z,-54
2019-01-09T12:33:27.030Z,-56
2019-01-09T12:34:25.434Z,-55
2019-01-09T12:35:22.653Z,-55
2019-01-09T12:36:23.405Z,-70
2019-01-09T12:37:22.255Z,-72
2019-01-09T12:38:22.495Z,-72
2019-01-09T12:39:23.828Z,-65
2019-01-09T12:40:22.869Z,-67
2019-01-09T12:41:20.504Z,-66
2019-01-09T12:42:24.492Z,-66
2019-01-09T12:43:27.209Z,-65
2019-01-09T12:44:24.154Z,-65
2019-01-09T12:45:21.097Z,-69
2019-01-09T12:46:18.736Z,-69
2019-01-09T12:47:16.426Z,-69
2019-01-09T12:48:13.387Z,-56
2019-01-09T12:49:12.856Z,-56
2019-01-09T12:50:14.214Z,-55
2019-01-09T12:51:16.715Z,-56
2019-01-09T12:52:17.093Z,-57
2019-01-09T12:53:20.897Z,-57
2019-01-09T12:54:25.801Z,-57
2019-01-09T12:55:22.524Z,-56
2019-01-09T12:56:19.341Z,-56
2019-01-09T12:57:17.730Z,-56
2019-01-09T12:58:15.618Z,-56
2019-01-09T12:59:21.372Z,-55
2019-01-09T12:59:21.812Z,-55
2019-01-09T13:00:11.622Z,-56
2019-01-09T13:01:11.166Z,-54
2019-01-09T13:02:15.161Z,-56
2019-01-09T13:03:12.531Z,-56
2019-01-09T13:04:09.921Z,-55
2019-01-09T13:05:07.041Z,-55
2019-01-09T13:06:05.785Z,-56
2019-01-09T13:07:03.403Z,-57
2019-01-09T13:08:11.804Z,-57
2019-01-09T13:09:22.164Z,-57
2019-01-09T13:09:22.663Z,-57
2019-01-09T13:10:23.201Z,-55
2019-01-09T13:11:20.377Z,-55
2019-01-09T13:12:18.221Z,-53
2019-01-09T13:13:20.291Z,-56
2019-01-09T13:14:17.703Z,-54
2019-01-09T13:15:14.750Z,-53
2019-01-09T13:16:13.231Z,-54
2019-01-09T13:17:12.046Z,-55
2019-01-09T13:18:11.487Z,-54
2019-01-09T13:19:13.471Z,-53
2019-01-09T13:20:16.425Z,-53
2019-01-09T13:21:16.424Z,-54
2019-01-09T13:22:14.198Z,-55
2019-01-09T13:23:14.109Z,-54
2019-01-09T13:24:12.987Z,-54
2019-01-09T13:25:11.310Z,-57
2019-01-09T13:26:17.748Z,-57
2019-01-09T13:27:20.325Z,-57
2019-01-09T13:28:18.294Z,-56
2019-01-09T13:29:16.033Z,-56
2019-01-09T13:30:23.528Z,-56
2019-01-09T13:31:21.549Z,-56
2019-01-09T13:32:24.949Z,-55
2019-01-09T13:33:27.836Z,-56
2019-01-09T13:34:27.353Z,-55